sensor_id;sensor_type;location;lat;lon;timestamp;P1;durP1;ratioP1;P2;durP2;ratioP2
44098;SDS011;29762;50.086;14.364;2024-02-21T00:05:45;15.77;;;10.70;;
44098;SDS011;29762;50.086;14.364;2024-02-21T00:16:04;14.80;;;10.20;;
44098;SDS011;29762;50.086;14.364;2024-02-21T00:26:24;17.27;;;10.02;;
44098;SDS011;29762;50.086;14.364;2024-02-21T00:36:45;13.20;;;9.48;;
44098;SDS011;29762;50.086;14.364;2024-02-21T00:47:04;14.13;;;9.23;;
44098;SDS011;29762;50.086;14.364;2024-02-21T00:57:23;13.00;;;8.52;;
44098;SDS011;29762;50.086;14.364;2024-02-21T01:07:43;14.63;;;8.80;;
44098;SDS011;29762;50.086;14.364;2024-02-21T01:18:02;10.98;;;8.10;;
44098;SDS011;29762;50.086;14.364;2024-02-21T01:28:21;11.52;;;8.40;;
44098;SDS011;29762;50.086;14.364;2024-02-21T01:38:41;10.75;;;7.80;;
44098;SDS011;29762;50.086;14.364;2024-02-21T01:49:00;12.57;;;8.18;;
44098;SDS011;29762;50.086;14.364;2024-02-21T01:59:19;11.65;;;7.90;;
44098;SDS011;29762;50.086;14.364;2024-02-21T02:09:41;9.70;;;7.20;;
44098;SDS011;29762;50.086;14.364;2024-02-21T02:20:01;10.85;;;7.57;;
44098;SDS011;29762;50.086;14.364;2024-02-21T02:30:20;9.93;;;7.07;;
44098;SDS011;29762;50.086;14.364;2024-02-21T02:40:41;8.23;;;6.75;;
44098;SDS011;29762;50.086;14.364;2024-02-21T02:51:00;9.35;;;6.68;;
44098;SDS011;29762;50.086;14.364;2024-02-21T03:01:19;8.32;;;6.43;;
44098;SDS011;29762;50.086;14.364;2024-02-21T03:11:39;8.18;;;6.40;;
44098;SDS011;29762;50.086;14.364;2024-02-21T03:22:00;9.60;;;6.45;;
44098;SDS011;29762;50.086;14.364;2024-02-21T03:32:19;8.63;;;6.28;;
44098;SDS011;29762;50.086;14.364;2024-02-21T03:42:39;7.50;;;5.93;;
44098;SDS011;29762;50.086;14.364;2024-02-21T03:52:58;8.27;;;5.97;;
44098;SDS011;29762;50.086;14.364;2024-02-21T04:03:18;8.13;;;5.72;;
44098;SDS011;29762;50.086;14.364;2024-02-21T04:13:37;7.65;;;5.68;;
44098;SDS011;29762;50.086;14.364;2024-02-21T04:23:57;7.13;;;5.75;;
44098;SDS011;29762;50.086;14.364;2024-02-21T04:34:16;7.55;;;5.43;;
44098;SDS011;29762;50.086;14.364;2024-02-21T04:44:36;6.10;;;5.47;;
44098;SDS011;29762;50.086;14.364;2024-02-21T04:54:55;5.70;;;4.95;;
44098;SDS011;29762;50.086;14.364;2024-02-21T05:05:15;5.93;;;5.22;;
44098;SDS011;29762;50.086;14.364;2024-02-21T05:15:36;8.13;;;5.07;;
44098;SDS011;29762;50.086;14.364;2024-02-21T05:25:55;5.85;;;4.88;;
44098;SDS011;29762;50.086;14.364;2024-02-21T05:36:15;6.03;;;4.60;;
44098;SDS011;29762;50.086;14.364;2024-02-21T05:46:34;6.90;;;4.72;;
44098;SDS011;29762;50.086;14.364;2024-02-21T05:56:54;6.15;;;4.18;;
44098;SDS011;29762;50.086;14.364;2024-02-21T06:07:13;5.85;;;4.35;;
44098;SDS011;29762;50.086;14.364;2024-02-21T06:17:32;6.93;;;4.55;;
44098;SDS011;29762;50.086;14.364;2024-02-21T06:27:52;6.20;;;2.80;;
44098;SDS011;29762;50.086;14.364;2024-02-21T06:38:11;6.38;;;3.42;;
44098;SDS011;29762;50.086;14.364;2024-02-21T06:48:31;6.35;;;3.40;;
44098;SDS011;29762;50.086;14.364;2024-02-21T06:58:50;4.65;;;3.08;;
44098;SDS011;29762;50.086;14.364;2024-02-21T07:09:09;6.22;;;2.95;;
44098;SDS011;29762;50.086;14.364;2024-02-21T07:19:29;5.50;;;2.92;;
44098;SDS011;29762;50.086;14.364;2024-02-21T07:29:49;5.40;;;3.22;;
44098;SDS011;29762;50.086;14.364;2024-02-21T07:40:12;4.18;;;2.95;;
44098;SDS011;29762;50.086;14.364;2024-02-21T07:50:32;5.57;;;2.92;;
44098;SDS011;29762;50.086;14.364;2024-02-21T08:00:51;7.15;;;2.65;;
44098;SDS011;29762;50.086;14.364;2024-02-21T08:11:10;6.28;;;2.88;;
44098;SDS011;29762;50.086;14.364;2024-02-21T08:21:30;4.15;;;2.88;;
44098;SDS011;29762;50.086;14.364;2024-02-21T08:31:49;3.65;;;2.47;;
44098;SDS011;29762;50.086;14.364;2024-02-21T08:42:08;8.40;;;3.10;;
44098;SDS011;29762;50.086;14.364;2024-02-21T08:52:27;11.02;;;2.50;;
44098;SDS011;29762;50.086;14.364;2024-02-21T09:02:47;10.88;;;2.63;;
44098;SDS011;29762;50.086;14.364;2024-02-21T09:13:07;10.48;;;2.78;;
44098;SDS011;29762;50.086;14.364;2024-02-21T09:23:29;9.80;;;3.00;;
44098;SDS011;29762;50.086;14.364;2024-02-21T09:33:50;9.18;;;2.92;;
44098;SDS011;29762;50.086;14.364;2024-02-21T09:44:10;6.80;;;3.28;;
44098;SDS011;29762;50.086;14.364;2024-02-21T09:54:30;10.05;;;4.45;;
44098;SDS011;29762;50.086;14.364;2024-02-21T10:04:52;6.30;;;3.53;;
44098;SDS011;29762;50.086;14.364;2024-02-21T10:15:11;10.45;;;3.75;;
44098;SDS011;29762;50.086;14.364;2024-02-21T10:25:31;8.35;;;3.50;;
44098;SDS011;29762;50.086;14.364;2024-02-21T10:35:50;7.20;;;3.40;;
44098;SDS011;29762;50.086;14.364;2024-02-21T10:46:11;6.72;;;3.40;;
44098;SDS011;29762;50.086;14.364;2024-02-21T10:56:32;5.97;;;3.03;;
44098;SDS011;29762;50.086;14.364;2024-02-21T11:06:55;7.63;;;3.90;;
44098;SDS011;29762;50.086;14.364;2024-02-21T11:17:19;16.30;;;4.35;;
44098;SDS011;29762;50.086;14.364;2024-02-21T11:27:45;9.48;;;4.20;;
44098;SDS011;29762;50.086;14.364;2024-02-21T11:38:11;7.60;;;3.55;;
44098;SDS011;29762;50.086;14.364;2024-02-21T11:48:34;7.57;;;2.60;;
44098;SDS011;29762;50.086;14.364;2024-02-21T11:58:53;5.32;;;2.28;;
44098;SDS011;29762;50.086;14.364;2024-02-21T12:09:16;5.55;;;1.85;;
44098;SDS011;29762;50.086;14.364;2024-02-21T12:19:36;4.88;;;2.60;;
44098;SDS011;29762;50.086;14.364;2024-02-21T12:29:55;4.15;;;2.15;;
44098;SDS011;29762;50.086;14.364;2024-02-21T12:40:14;4.57;;;1.70;;
44098;SDS011;29762;50.086;14.364;2024-02-21T12:50:34;5.43;;;1.77;;
44098;SDS011;29762;50.086;14.364;2024-02-21T13:00:53;4.53;;;1.70;;
44098;SDS011;29762;50.086;14.364;2024-02-21T13:11:13;3.55;;;1.50;;
44098;SDS011;29762;50.086;14.364;2024-02-21T13:21:32;3.67;;;1.58;;
44098;SDS011;29762;50.086;14.364;2024-02-21T13:31:52;4.25;;;1.48;;
44098;SDS011;29762;50.086;14.364;2024-02-21T13:42:11;3.05;;;1.60;;
44098;SDS011;29762;50.086;14.364;2024-02-21T13:52:31;2.85;;;1.30;;
44098;SDS011;29762;50.086;14.364;2024-02-21T14:02:52;3.63;;;1.48;;
44098;SDS011;29762;50.086;14.364;2024-02-21T14:13:13;2.50;;;1.30;;
44098;SDS011;29762;50.086;14.364;2024-02-21T14:23:33;2.67;;;1.33;;
44098;SDS011;29762;50.086;14.364;2024-02-21T14:33:53;3.20;;;1.60;;
44098;SDS011;29762;50.086;14.364;2024-02-21T14:44:12;3.50;;;1.40;;
44098;SDS011;29762;50.086;14.364;2024-02-21T14:54:33;2.33;;;1.40;;
44098;SDS011;29762;50.086;14.364;2024-02-21T15:04:53;1.80;;;1.13;;
44098;SDS011;29762;50.086;14.364;2024-02-21T15:15:13;5.25;;;2.17;;
44098;SDS011;29762;50.086;14.364;2024-02-21T15:25:32;3.35;;;1.40;;
44098;SDS011;29762;50.086;14.364;2024-02-21T15:35:52;6.93;;;1.60;;
44098;SDS011;29762;50.086;14.364;2024-02-21T15:46:12;4.82;;;1.52;;
44098;SDS011;29762;50.086;14.364;2024-02-21T15:56:32;2.90;;;1.20;;
44098;SDS011;29762;50.086;14.364;2024-02-21T16:06:51;4.28;;;1.63;;
44098;SDS011;29762;50.086;14.364;2024-02-21T16:17:10;7.70;;;1.35;;
44098;SDS011;29762;50.086;14.364;2024-02-21T16:27:30;6.78;;;2.00;;
44098;SDS011;29762;50.086;14.364;2024-02-21T16:37:49;7.00;;;1.88;;
44098;SDS011;29762;50.086;14.364;2024-02-21T16:48:09;10.75;;;6.45;;
44098;SDS011;29762;50.086;14.364;2024-02-21T16:58:28;6.95;;;3.08;;
44098;SDS011;29762;50.086;14.364;2024-02-21T17:08:55;10.73;;;2.67;;
44098;SDS011;29762;50.086;14.364;2024-02-21T17:19:15;12.90;;;4.78;;
44098;SDS011;29762;50.086;14.364;2024-02-21T17:29:35;4.30;;;2.45;;
44098;SDS011;29762;50.086;14.364;2024-02-21T17:39:54;4.93;;;3.20;;
44098;SDS011;29762;50.086;14.364;2024-02-21T17:50:14;11.90;;;7.00;;
44098;SDS011;29762;50.086;14.364;2024-02-21T18:00:40;11.35;;;6.70;;
44098;SDS011;29762;50.086;14.364;2024-02-21T18:11:04;10.38;;;6.35;;
44098;SDS011;29762;50.086;14.364;2024-02-21T18:21:23;7.32;;;5.93;;
44098;SDS011;29762;50.086;14.364;2024-02-21T18:31:43;7.45;;;5.60;;
44098;SDS011;29762;50.086;14.364;2024-02-21T18:42:03;7.03;;;5.00;;
44098;SDS011;29762;50.086;14.364;2024-02-21T18:52:22;6.93;;;5.22;;
44098;SDS011;29762;50.086;14.364;2024-02-21T19:02:42;7.10;;;5.10;;
44098;SDS011;29762;50.086;14.364;2024-02-21T19:13:02;5.18;;;4.15;;
44098;SDS011;29762;50.086;14.364;2024-02-21T19:23:21;7.85;;;3.95;;
44098;SDS011;29762;50.086;14.364;2024-02-21T19:33:41;12.32;;;4.60;;
44098;SDS011;29762;50.086;14.364;2024-02-21T19:44:00;9.65;;;4.57;;
44098;SDS011;29762;50.086;14.364;2024-02-21T19:54:20;8.63;;;5.05;;
44098;SDS011;29762;50.086;14.364;2024-02-21T20:04:39;10.07;;;4.97;;
44098;SDS011;29762;50.086;14.364;2024-02-21T20:14:58;11.45;;;5.63;;
44098;SDS011;29762;50.086;14.364;2024-02-21T20:25:20;12.40;;;5.85;;
44098;SDS011;29762;50.086;14.364;2024-02-21T20:35:39;11.20;;;6.25;;
44098;SDS011;29762;50.086;14.364;2024-02-21T20:45:59;9.40;;;5.60;;
44098;SDS011;29762;50.086;14.364;2024-02-21T20:56:18;8.18;;;5.00;;
44098;SDS011;29762;50.086;14.364;2024-02-21T21:06:39;7.65;;;5.05;;
44098;SDS011;29762;50.086;14.364;2024-02-21T21:16:58;6.93;;;4.82;;
44098;SDS011;29762;50.086;14.364;2024-02-21T21:27:17;9.93;;;5.45;;
44098;SDS011;29762;50.086;14.364;2024-02-21T21:37:39;8.10;;;4.55;;
44098;SDS011;29762;50.086;14.364;2024-02-21T21:48:01;8.65;;;4.32;;
44098;SDS011;29762;50.086;14.364;2024-02-21T21:58:30;8.23;;;4.55;;
44098;SDS011;29762;50.086;14.364;2024-02-21T22:08:50;6.72;;;4.43;;
44098;SDS011;29762;50.086;14.364;2024-02-21T22:19:10;7.22;;;4.30;;
44098;SDS011;29762;50.086;14.364;2024-02-21T22:29:29;5.47;;;4.15;;
44098;SDS011;29762;50.086;14.364;2024-02-21T22:39:51;8.48;;;4.18;;
44098;SDS011;29762;50.086;14.364;2024-02-21T22:50:10;5.03;;;3.70;;
44098;SDS011;29762;50.086;14.364;2024-02-21T23:00:30;5.72;;;4.00;;
44098;SDS011;29762;50.086;14.364;2024-02-21T23:10:50;6.70;;;4.10;;
44098;SDS011;29762;50.086;14.364;2024-02-21T23:21:10;5.68;;;4.10;;
44098;SDS011;29762;50.086;14.364;2024-02-21T23:31:30;4.43;;;3.03;;
44098;SDS011;29762;50.086;14.364;2024-02-21T23:41:49;6.30;;;3.70;;
44098;SDS011;29762;50.086;14.364;2024-02-21T23:52:08;5.82;;;3.63;;
